Terminal Aerodrome Forecast
Issued by NWS

Home | Current Version | Previous Version | Text Only | Print | Product List | Glossary On
Versions: 1 2 3 4 5 6 7 8 9 10 11 12 13 14 15 16 17
660
FTUS41 KCAR 262333
TAFHUL
TAF
KHUL 262333Z 2700/2724 00000KT P6SM FEW250
     FM270800 12006KT P6SM OVC050
     FM271000 12006KT 2SM -SN OVC025
     FM271200 12007KT 1SM -SN SCT007 OVC015
     FM271600 14010G20KT 1/2SM SN OVC006=

USA.gov is the U.S. government's official web portal to all federal, state and local government web resources and services.